createdAt,value
2022-12-17T00:01:24.835Z,98940.34
2022-12-17T00:04:12.810Z,98945.25
2022-12-17T00:07:00.997Z,98932.66
2022-12-17T00:09:50.427Z,98918.06
2022-12-17T00:12:38.325Z,98924.13
2022-12-17T00:15:26.941Z,98932.09
2022-12-17T00:18:45.917Z,98926.34
2022-12-17T00:21:33.956Z,98932.47
2022-12-17T00:24:22.109Z,98934.91
2022-12-17T00:27:09.976Z,98936.63
2022-12-17T00:29:58.146Z,98919.81
2022-12-17T00:32:46.311Z,98909.88
2022-12-17T00:35:34.633Z,98925.78
2022-12-17T00:38:22.834Z,98929.22
2022-12-17T00:41:12.632Z,98940.94
2022-12-17T00:44:00.753Z,98950.78
2022-12-17T00:46:49.009Z,98970.88
2022-12-17T00:49:36.838Z,98965.94
2022-12-17T00:52:24.950Z,98955.06
2022-12-17T00:55:13.292Z,98986.09
2022-12-17T00:58:01.408Z,99008.91
2022-12-17T01:00:49.695Z,99016.44
2022-12-17T01:03:38.325Z,99005.97
2022-12-17T01:06:27.251Z,98993.53
2022-12-17T01:09:15.385Z,99005.03
2022-12-17T01:12:03.359Z,99011.19
2022-12-17T01:14:51.553Z,99014.53
2022-12-17T01:17:39.805Z,99022.59
2022-12-17T01:20:28.371Z,99045.78
2022-12-17T01:23:16.521Z,99042.72
2022-12-17T01:26:16.343Z,99033.59
2022-12-17T01:29:04.538Z,99028.91
2022-12-17T01:31:52.826Z,99039.66
2022-12-17T01:34:41.840Z,99045.13
2022-12-17T01:37:32.898Z,99039.59
2022-12-17T01:40:21.148Z,99041.84
2022-12-17T01:43:09.055Z,99064.78
2022-12-17T01:46:03.958Z,99066.56
2022-12-17T01:49:05.035Z,99079.81
2022-12-17T01:51:55.137Z,99090.63
2022-12-17T01:54:44.103Z,99095.22
2022-12-17T01:57:32.752Z,99087.28
2022-12-17T02:00:33.953Z,99086.50
2022-12-17T02:03:23.019Z,99049.75
2022-12-17T02:06:39.800Z,99059.13
2022-12-17T02:10:32.616Z,99070.69
2022-12-17T02:13:53.357Z,99070.59
2022-12-17T02:17:02.245Z,99076.16
2022-12-17T02:20:14.724Z,99077.47
2022-12-17T02:23:41.044Z,99062.94
2022-12-17T02:26:48.358Z,99060.72
2022-12-17T02:29:38.348Z,99062.38
2022-12-17T02:32:29.918Z,99058.50
2022-12-17T02:35:23.650Z,99059.00
2022-12-17T02:38:11.813Z,99049.75
2022-12-17T02:41:04.038Z,99057.00
2022-12-17T02:43:53.191Z,99050.00
2022-12-17T02:46:41.547Z,99060.94
2022-12-17T02:49:29.804Z,99055.06
2022-12-17T02:52:18.304Z,99058.56
2022-12-17T02:55:06.257Z,99054.16
2022-12-17T02:57:54.718Z,99055.22
2022-12-17T03:00:43.119Z,99054.94
2022-12-17T03:03:31.370Z,99061.41
2022-12-17T03:06:19.679Z,99063.53
2022-12-17T03:09:07.893Z,99063.56
2022-12-17T03:11:56.242Z,99076.03
2022-12-17T03:14:42.702Z,99078.22
2022-12-17T03:17:30.767Z,99084.06
2022-12-17T03:20:18.859Z,99088.19
2022-12-17T03:23:06.807Z,99083.38
2022-12-17T03:25:55.004Z,99096.53
2022-12-17T03:28:43.068Z,99093.28
2022-12-17T03:31:31.001Z,99095.47
2022-12-17T03:34:19.008Z,99105.22
2022-12-17T03:37:07.112Z,99103.66
2022-12-17T03:39:55.439Z,99116.19
2022-12-17T03:42:43.492Z,99113.97
2022-12-17T03:45:31.974Z,99114.38
2022-12-17T03:48:30.969Z,99125.94
2022-12-17T03:51:20.307Z,99132.31
2022-12-17T03:54:08.217Z,99138.28
2022-12-17T03:56:56.514Z,99145.19
2022-12-17T03:59:44.665Z,99139.84
2022-12-17T04:02:32.867Z,99144.03
2022-12-17T04:05:21.080Z,99139.38
2022-12-17T04:08:09.391Z,99136.59
2022-12-17T04:10:58.619Z,99140.03
2022-12-17T04:13:47.244Z,99138.63
2022-12-17T04:16:35.699Z,99135.03
2022-12-17T04:19:23.903Z,99131.44
2022-12-17T04:22:11.996Z,99133.78
2022-12-17T04:25:00.191Z,99129.00
2022-12-17T04:27:48.006Z,99121.81
2022-12-17T04:30:36.420Z,99128.19
2022-12-17T04:33:24.697Z,99116.78
2022-12-17T04:36:12.920Z,99102.03
2022-12-17T04:39:01.256Z,99124.03
2022-12-17T04:41:49.225Z,99122.22
2022-12-17T04:44:37.449Z,99117.09
2022-12-17T04:47:25.726Z,99120.44
2022-12-17T04:50:13.793Z,99132.66
2022-12-17T04:53:02.103Z,99141.25
2022-12-17T04:55:50.343Z,99154.03
2022-12-17T04:58:38.535Z,99161.66
2022-12-17T05:01:26.839Z,99163.81
2022-12-17T05:04:15.058Z,99164.06
2022-12-17T05:07:03.329Z,99160.44
2022-12-17T05:09:51.346Z,99158.88
2022-12-17T05:12:39.305Z,99157.19
2022-12-17T05:15:27.657Z,99166.63
2022-12-17T05:18:27.748Z,99173.47
2022-12-17T05:21:16.096Z,99187.50
2022-12-17T05:24:03.992Z,99186.53
2022-12-17T05:26:52.169Z,99188.22
2022-12-17T05:29:40.787Z,99186.94
2022-12-17T05:32:28.998Z,99214.91
2022-12-17T05:35:17.986Z,99209.16
2022-12-17T05:38:06.175Z,99211.19
2022-12-17T05:40:54.646Z,99227.88
2022-12-17T05:43:42.802Z,99228.38
2022-12-17T05:46:30.892Z,99233.50
2022-12-17T05:49:18.985Z,99245.38
2022-12-17T05:52:07.108Z,99237.44
2022-12-17T05:54:56.139Z,99238.22
2022-12-17T05:57:44.252Z,99246.13
2022-12-17T06:00:34.207Z,99258.34
2022-12-17T06:03:23.793Z,99249.78
2022-12-17T06:06:15.740Z,99256.72
2022-12-17T06:09:03.895Z,99268.03
2022-12-17T06:12:19.856Z,99278.13
2022-12-17T06:15:07.992Z,99281.06
2022-12-17T06:17:56.250Z,99288.69
2022-12-17T06:20:44.339Z,99288.59
2022-12-17T06:23:33.036Z,99301.59
2022-12-17T06:26:21.374Z,99298.81
2022-12-17T06:29:09.629Z,99302.38
2022-12-17T06:31:57.994Z,99306.34
2022-12-17T06:34:46.313Z,99315.00
2022-12-17T06:37:34.612Z,99339.72
2022-12-17T06:40:23.356Z,99325.25
2022-12-17T06:43:16.124Z,99342.78
2022-12-17T06:46:04.359Z,99342.50
2022-12-17T06:48:52.500Z,99332.63
2022-12-17T06:51:40.522Z,99348.63
2022-12-17T06:54:45.458Z,99355.91
2022-12-17T06:57:36.537Z,99367.84
2022-12-17T07:00:30.263Z,99364.66
2022-12-17T07:03:18.462Z,99362.16
2022-12-17T07:06:09.590Z,99372.22
2022-12-17T07:08:57.783Z,99380.78
2022-12-17T07:11:45.713Z,99392.28
2022-12-17T07:14:33.771Z,99404.81
2022-12-17T07:17:21.789Z,99400.38
2022-12-17T07:20:09.851Z,99401.63
2022-12-17T07:22:58.046Z,99401.81
2022-12-17T07:25:46.500Z,99414.00
2022-12-17T07:28:34.414Z,99419.06
2022-12-17T07:31:22.542Z,99417.19
2022-12-17T07:34:10.636Z,99433.31
2022-12-17T07:36:58.522Z,99428.13
2022-12-17T07:39:46.200Z,99441.00
2022-12-17T07:42:34.271Z,99442.69
2022-12-17T07:45:22.624Z,99440.03
2022-12-17T07:48:14.391Z,99435.22
2022-12-17T07:51:02.364Z,99444.00
2022-12-17T07:53:50.514Z,99447.47
2022-12-17T07:56:38.999Z,99443.31
2022-12-17T07:59:27.192Z,99457.00
2022-12-17T08:02:15.362Z,99457.16
2022-12-17T08:05:03.734Z,99453.84
2022-12-17T08:07:51.800Z,99468.38
2022-12-17T08:10:40.088Z,99471.91
2022-12-17T08:13:28.657Z,99468.38
2022-12-17T08:16:16.922Z,99474.19
2022-12-17T08:19:05.038Z,99481.53
2022-12-17T08:21:53.239Z,99476.00
2022-12-17T08:24:41.101Z,99474.53
2022-12-17T08:27:29.347Z,99482.53
2022-12-17T08:30:17.516Z,99490.84
2022-12-17T08:33:05.635Z,99496.91
2022-12-17T08:35:53.851Z,99492.75
2022-12-17T08:38:42.024Z,99497.09
2022-12-17T08:41:29.964Z,99508.69
2022-12-17T08:44:17.792Z,99508.69
2022-12-17T08:47:05.946Z,99508.69
2022-12-17T08:49:54.062Z,99519.47
2022-12-17T08:52:44.693Z,99518.91
2022-12-17T08:55:33.268Z,99534.59
2022-12-17T08:58:21.265Z,99535.44
2022-12-17T09:01:09.589Z,99542.16
2022-12-17T09:03:57.657Z,99550.78
2022-12-17T09:06:45.442Z,99549.97
2022-12-17T09:09:33.039Z,99553.22
2022-12-17T09:12:20.944Z,99546.78
2022-12-17T09:15:08.719Z,99536.25
2022-12-17T09:17:56.880Z,99547.44
2022-12-17T09:20:45.017Z,99545.44
2022-12-17T09:23:37.343Z,99545.75
2022-12-17T09:26:26.375Z,99550.84
2022-12-17T09:29:14.625Z,99558.50
2022-12-17T09:32:02.887Z,99556.19
2022-12-17T09:34:50.971Z,99561.22
2022-12-17T09:37:39.209Z,99560.75
2022-12-17T09:40:37.209Z,99568.19
2022-12-17T09:44:00.403Z,99566.16
2022-12-17T09:47:14.150Z,99568.81
2022-12-17T09:50:02.503Z,99575.34
2022-12-17T09:52:59.974Z,99588.13
2022-12-17T09:56:12.315Z,99600.44
2022-12-17T09:59:00.310Z,99603.50
2022-12-17T10:01:53.990Z,99605.13
2022-12-17T10:04:56.021Z,99608.19
2022-12-17T10:07:54.921Z,99597.34
2022-12-17T10:10:51.214Z,99606.31
2022-12-17T10:13:42.177Z,99608.63
2022-12-17T10:16:55.328Z,99608.00
2022-12-17T10:19:59.090Z,99619.78
2022-12-17T10:22:47.676Z,99618.91
2022-12-17T10:25:40.480Z,99635.38
2022-12-17T10:28:38.121Z,99638.22
2022-12-17T10:31:38.000Z,99624.25
2022-12-17T10:34:39.453Z,99639.09
2022-12-17T10:37:43.049Z,99631.91
2022-12-17T10:40:54.721Z,99643.56
2022-12-17T10:43:53.099Z,99647.59
2022-12-17T10:46:51.437Z,99655.34
2022-12-17T10:49:43.745Z,99663.44
2022-12-17T10:52:51.423Z,99678.66
2022-12-17T10:55:46.244Z,99680.44
2022-12-17T10:58:47.977Z,99669.94
2022-12-17T11:01:44.973Z,99671.22
2022-12-17T11:04:49.838Z,99695.81
2022-12-17T11:08:13.675Z,99700.53
2022-12-17T11:11:03.988Z,99694.72
2022-12-17T11:14:00.060Z,99702.41
2022-12-17T11:17:13.734Z,99703.66
2022-12-17T11:20:27.047Z,99715.13
2022-12-17T11:23:19.947Z,99730.97
2022-12-17T11:26:27.665Z,99728.56
2022-12-17T11:29:18.364Z,99734.09
2022-12-17T11:32:36.693Z,99738.22
2022-12-17T11:36:40.830Z,99740.25
2022-12-17T11:40:00.600Z,99748.66
2022-12-17T11:43:04.642Z,99760.44
2022-12-17T11:46:32.317Z,99756.53
2022-12-17T11:49:57.486Z,99755.38
2022-12-17T11:53:38.873Z,99739.59
2022-12-17T11:56:39.316Z,99738.69
2022-12-17T11:59:54.908Z,99755.38
2022-12-17T12:03:09.549Z,99752.41
2022-12-17T12:06:18.396Z,99749.16
2022-12-17T12:09:40.887Z,99756.38
2022-12-17T12:13:09.694Z,99767.06
2022-12-17T12:16:46.446Z,99781.41
2022-12-17T12:20:02.266Z,99801.09
2022-12-17T12:23:21.136Z,99804.53
2022-12-17T12:26:27.014Z,99805.16
2022-12-17T12:29:55.325Z,99806.66
2022-12-17T12:33:19.792Z,99815.53
2022-12-17T12:36:10.538Z,99823.94
2022-12-17T12:39:03.976Z,99836.38
2022-12-17T12:42:52.055Z,99836.28
2022-12-17T12:46:09.397Z,99844.13
2022-12-17T12:49:19.374Z,99857.91
2022-12-17T12:52:13.598Z,99852.81
2022-12-17T12:55:04.360Z,99840.34
2022-12-17T12:58:14.800Z,99855.25
2022-12-17T13:01:05.660Z,99853.66
2022-12-17T13:04:02.647Z,99852.47
2022-12-17T13:06:57.123Z,99854.94
2022-12-17T13:09:52.733Z,99860.44
2022-12-17T13:12:46.481Z,99849.56
2022-12-17T13:15:37.889Z,99844.56
2022-12-17T13:18:36.423Z,99858.22
2022-12-17T13:21:27.314Z,99870.69
2022-12-17T13:23:56.890Z,99880.25
2022-12-17T13:26:44.054Z,99887.16
2022-12-17T13:29:37.261Z,99888.81
2022-12-17T13:32:30.562Z,99892.38
2022-12-17T13:35:42.396Z,99901.66
2022-12-17T13:38:50.546Z,99902.56
2022-12-17T13:41:28.523Z,99912.06
2022-12-17T13:44:23.979Z,99926.56
2022-12-17T13:46:55.676Z,99938.16
2022-12-17T13:49:30.860Z,99949.69
2022-12-17T13:52:17.641Z,99951.47
2022-12-17T13:54:50.024Z,99962.47
2022-12-17T13:57:26.242Z,99959.91
2022-12-17T13:59:59.459Z,99967.84
2022-12-17T14:02:33.846Z,99965.00
2022-12-17T14:05:08.313Z,99965.41
2022-12-17T14:07:40.312Z,99972.72
2022-12-17T14:10:20.505Z,99979.09
2022-12-17T14:12:50.170Z,99976.47
2022-12-17T14:15:25.783Z,99982.16
2022-12-17T14:17:57.030Z,99976.00
2022-12-17T14:20:34.452Z,99981.66
2022-12-17T14:23:30.320Z,99990.72
2022-12-17T14:26:00.855Z,99996.78
2022-12-17T14:28:50.476Z,100000.31
2022-12-17T14:31:30.986Z,100009.75
2022-12-17T14:34:08.177Z,100021.94
2022-12-17T14:36:43.438Z,100025.44
2022-12-17T14:39:25.197Z,100033.47
2022-12-17T14:42:26.205Z,100037.84
2022-12-17T14:44:58.664Z,100038.97
2022-12-17T14:47:35.224Z,100049.34
2022-12-17T14:50:36.418Z,100053.31
2022-12-17T14:53:27.931Z,100060.28
2022-12-17T14:55:59.282Z,100073.53
2022-12-17T14:58:28.826Z,100063.03
2022-12-17T15:01:14.279Z,100067.41
2022-12-17T15:03:46.952Z,100070.91
2022-12-17T15:06:20.091Z,100074.41
2022-12-17T15:08:51.325Z,100075.44
2022-12-17T15:11:23.621Z,100079.16
2022-12-17T15:13:56.656Z,100081.97
2022-12-17T15:16:27.270Z,100092.53
2022-12-17T15:18:56.848Z,100098.59
2022-12-17T15:21:27.619Z,100103.09
2022-12-17T15:23:57.248Z,100112.97
2022-12-17T15:26:26.925Z,100118.06
2022-12-17T15:28:57.168Z,100120.13
2022-12-17T15:31:30.603Z,100121.03
2022-12-17T15:34:03.279Z,100127.22
2022-12-17T15:36:33.613Z,100137.78
2022-12-17T15:39:06.286Z,100142.28
2022-12-17T15:41:54.638Z,100157.16
2022-12-17T15:44:24.161Z,100145.81
2022-12-17T15:46:53.728Z,100144.09
2022-12-17T15:49:22.086Z,100146.69
2022-12-17T15:51:51.628Z,100145.75
2022-12-17T15:54:21.171Z,100145.75
2022-12-17T15:56:55.715Z,100157.34
2022-12-17T15:59:25.565Z,100169.50
2022-12-17T16:01:55.266Z,100180.22
2022-12-17T16:04:25.488Z,100185.53
2022-12-17T16:06:55.458Z,100190.81
2022-12-17T16:09:27.085Z,100195.28
2022-12-17T16:11:57.849Z,100197.94
2022-12-17T16:14:27.370Z,100210.22
2022-12-17T16:16:56.910Z,100208.53
2022-12-17T16:19:26.657Z,100203.16
2022-12-17T16:21:56.211Z,100209.38
2022-12-17T16:24:26.018Z,100210.34
2022-12-17T16:27:02.448Z,100213.88
2022-12-17T16:29:34.383Z,100213.91
2022-12-17T16:32:04.062Z,100214.81
2022-12-17T16:34:33.759Z,100214.66
2022-12-17T16:37:03.577Z,100208.50
2022-12-17T16:39:35.056Z,100208.44
2022-12-17T16:42:05.215Z,100214.59
2022-12-17T16:44:35.666Z,100212.84
2022-12-17T16:47:05.311Z,100222.69
2022-12-17T16:49:36.068Z,100228.81
2022-12-17T16:52:05.917Z,100240.22
2022-12-17T16:54:35.500Z,100249.06
2022-12-17T16:57:05.094Z,100249.91
2022-12-17T16:59:34.592Z,100254.41
2022-12-17T17:02:04.595Z,100264.81
2022-12-17T17:04:35.015Z,100263.16
2022-12-17T17:07:04.700Z,100253.53
2022-12-17T17:09:34.248Z,100264.09
2022-12-17T17:12:04.028Z,100264.81
2022-12-17T17:14:33.533Z,100265.81
2022-12-17T17:17:03.173Z,100271.09
2022-12-17T17:19:32.803Z,100269.44
2022-12-17T17:22:02.372Z,100283.44
2022-12-17T17:24:31.871Z,100294.00
2022-12-17T17:27:01.690Z,100296.59
2022-12-17T17:29:31.372Z,100299.28
2022-12-17T17:32:10.421Z,100286.09
2022-12-17T17:34:41.209Z,100299.38
2022-12-17T17:37:10.782Z,100311.75
2022-12-17T17:39:40.409Z,100299.41
2022-12-17T17:42:10.093Z,100307.28
2022-12-17T17:44:39.653Z,100310.00
2022-12-17T17:47:09.220Z,100316.97
2022-12-17T17:49:38.871Z,100326.63
2022-12-17T17:52:10.231Z,100327.59
2022-12-17T17:54:42.159Z,100333.69
2022-12-17T17:57:11.891Z,100334.66
2022-12-17T17:59:42.182Z,100338.09
2022-12-17T18:02:12.249Z,100341.66
2022-12-17T18:04:42.034Z,100339.88
2022-12-17T18:07:28.275Z,100353.03
2022-12-17T18:09:59.932Z,100356.59
2022-12-17T18:12:48.246Z,100370.66
2022-12-17T18:15:18.723Z,100372.38
2022-12-17T18:17:52.101Z,100370.66
2022-12-17T18:20:21.645Z,100382.13
2022-12-17T18:22:51.219Z,100376.00
2022-12-17T18:25:20.817Z,100382.16
2022-12-17T18:27:53.919Z,100378.63
2022-12-17T18:30:23.573Z,100379.53
2022-12-17T18:32:53.248Z,100385.66
2022-12-17T18:35:22.844Z,100398.81
2022-12-17T18:37:52.462Z,100404.13
2022-12-17T18:40:22.045Z,100411.13
2022-12-17T18:43:10.155Z,100413.75
2022-12-17T18:45:39.709Z,100419.84
2022-12-17T18:48:09.261Z,100419.94
2022-12-17T18:50:38.829Z,100427.84
2022-12-17T18:53:08.620Z,100436.56
2022-12-17T18:55:40.748Z,100448.00
2022-12-17T18:58:10.755Z,100448.88
2022-12-17T19:00:40.353Z,100451.47
2022-12-17T19:03:10.311Z,100450.59
2022-12-17T19:05:46.496Z,100453.28
2022-12-17T19:08:16.889Z,100456.75
2022-12-17T19:10:46.516Z,100463.81
2022-12-17T19:13:16.207Z,100477.91
2022-12-17T19:15:46.817Z,100478.75
2022-12-17T19:18:16.691Z,100477.88
2022-12-17T19:20:44.405Z,100491.06
2022-12-17T19:23:13.964Z,100496.34
2022-12-17T19:25:43.554Z,100494.63
2022-12-17T19:28:13.071Z,100502.50
2022-12-17T19:30:42.707Z,100499.88
2022-12-17T19:33:12.204Z,100508.66
2022-12-17T19:35:41.720Z,100513.94
2022-12-17T19:38:11.210Z,100518.31
2022-12-17T19:40:40.669Z,100519.19
2022-12-17T19:43:10.262Z,100525.34
2022-12-17T19:45:39.830Z,100538.53
2022-12-17T19:48:09.422Z,100545.53
2022-12-17T19:50:38.912Z,100548.19
2022-12-17T19:53:08.458Z,100523.59
2022-12-17T19:55:38.032Z,100542.91
2022-12-17T19:58:07.574Z,100552.56
2022-12-17T20:00:37.356Z,100556.09
2022-12-17T20:03:05.463Z,100557.84
2022-12-17T20:05:35.012Z,100552.56
2022-12-17T20:08:04.989Z,100564.88
2022-12-17T20:10:34.498Z,100564.88
2022-12-17T20:13:04.833Z,100568.41
2022-12-17T20:15:34.359Z,100571.91
2022-12-17T20:18:03.079Z,100574.53
2022-12-17T20:20:32.700Z,100577.19
2022-12-17T20:23:02.268Z,100579.81
2022-12-17T20:25:32.066Z,100594.72
2022-12-17T20:28:01.621Z,100591.19
2022-12-17T20:30:31.111Z,100594.69
2022-12-17T20:33:00.603Z,100607.88
2022-12-17T20:35:30.140Z,100615.81
2022-12-17T20:37:59.648Z,100619.34
2022-12-17T20:40:29.186Z,100624.63
2022-12-17T20:42:58.698Z,100620.22
2022-12-17T20:45:28.270Z,100633.41
2022-12-17T20:47:57.904Z,100636.03
2022-12-17T20:50:27.862Z,100639.53
2022-12-17T20:53:00.345Z,100645.69
2022-12-17T20:55:31.310Z,100645.69
2022-12-17T20:58:01.024Z,100661.50
2022-12-17T21:00:30.569Z,100673.81
2022-12-17T21:03:00.573Z,100663.28
2022-12-17T21:05:30.163Z,100668.53
2022-12-17T21:07:59.626Z,100675.56
2022-12-17T21:10:29.137Z,100679.09
2022-12-17T21:13:17.269Z,100684.38
2022-12-17T21:15:54.016Z,100693.13
2022-12-17T21:18:23.586Z,100688.78
2022-12-17T21:21:18.399Z,100696.69
2022-12-17T21:23:49.020Z,100707.25
2022-12-17T21:26:32.099Z,100709.00
2022-12-17T21:29:05.337Z,100718.66
2022-12-17T21:31:41.483Z,100723.94
2022-12-17T21:34:17.330Z,100724.81
2022-12-17T21:36:46.897Z,100726.56
2022-12-17T21:39:18.381Z,100730.97
2022-12-17T21:42:05.769Z,100731.88
2022-12-17T21:44:35.876Z,100732.75
2022-12-17T21:47:05.768Z,100737.13
2022-12-17T21:49:34.559Z,100734.47
2022-12-17T21:52:04.437Z,100735.38
2022-12-17T21:54:35.108Z,100744.19
2022-12-17T21:57:03.929Z,100745.91
2022-12-17T21:59:33.392Z,100744.19
2022-12-17T22:02:02.852Z,100748.53
2022-12-17T22:04:32.637Z,100761.75
2022-12-17T22:07:05.167Z,100756.50
2022-12-17T22:09:41.947Z,100756.47
2022-12-17T22:12:44.504Z,100773.19
2022-12-17T22:15:13.413Z,100770.56
2022-12-17T22:17:43.435Z,100779.38
2022-12-17T22:20:13.160Z,100782.88
2022-12-17T22:22:43.668Z,100781.09
2022-12-17T22:25:13.890Z,100791.66
2022-12-17T22:27:43.667Z,100795.16
2022-12-17T22:30:36.469Z,100793.41
2022-12-17T22:33:24.969Z,100797.84
2022-12-17T22:37:49.095Z,100805.72
2022-12-17T22:42:58.664Z,100808.38
2022-12-17T22:44:37.550Z,100821.59
2022-12-17T22:44:54.474Z,100818.97
2022-12-17T22:47:25.380Z,100821.59
2022-12-17T22:49:54.891Z,100825.13
2022-12-17T22:52:25.066Z,100823.38
2022-12-17T22:54:55.084Z,100822.47
2022-12-17T22:57:36.135Z,100828.63
2022-12-17T23:00:22.704Z,100838.31
2022-12-17T23:02:56.517Z,100839.19
2022-12-17T23:05:28.312Z,100849.72
2022-12-17T23:07:58.353Z,100848.88
2022-12-17T23:10:29.012Z,100858.56
2022-12-17T23:12:58.962Z,100862.06
2022-12-17T23:15:34.317Z,100867.38
2022-12-17T23:18:07.158Z,100867.38
2022-12-17T23:20:36.935Z,100867.34
2022-12-17T23:23:05.624Z,100870.00
2022-12-17T23:25:34.426Z,100876.16
2022-12-17T23:28:04.022Z,100877.94
2022-12-17T23:30:32.027Z,100884.97
2022-12-17T23:33:00.700Z,100887.59
2022-12-17T23:35:28.423Z,100893.78
2022-12-17T23:37:57.372Z,100879.69
2022-12-17T23:40:26.021Z,100886.72
2022-12-17T23:42:57.485Z,100893.78
2022-12-17T23:45:26.332Z,100898.16
2022-12-17T23:47:57.723Z,100903.44
2022-12-17T23:50:27.161Z,100913.16
2022-12-17T23:52:56.554Z,100914.00
2022-12-17T23:55:25.203Z,100921.94
2022-12-17T23:57:58.895Z,100921.06
